Terminal Aerodrome Forecast
Issued by NWS Twin Cities, MN

Home | Current Version | Previous Version | Text Only | Print | Product List | Glossary On
Versions: 1 2 3 4 5 6 7 8 9 10 11 12 13 14 15
000
FTUS43 KMPX 111500 AAA
TAFSTC
TAF AMD
KSTC 111514Z 1115/1212 17010KT P6SM SCT015 BKN020
     FM111630 19012KT P6SM BKN035 OVC060
     FM111900 22009KT P6SM SCT035 BKN060
      TEMPO 1121/1201 -TSRA BKN035CB
     FM120100 26004KT P6SM SCT250
      TEMPO 1209/1212 3SM BR=

USA.gov is the U.S. government's official web portal to all federal, state and local government web resources and services.